sensor_id;sensor_type;location;lat;lon;timestamp;temperature;humidity
31661;DHT22;18267;52.234;7.444;2023-04-06T00:01:30;5.10;99.90
31661;DHT22;18267;52.234;7.444;2023-04-06T00:03:55;5.00;99.90
31661;DHT22;18267;52.234;7.444;2023-04-06T00:06:21;5.00;99.90
31661;DHT22;18267;52.234;7.444;2023-04-06T00:08:47;5.10;99.90
31661;DHT22;18267;52.234;7.444;2023-04-06T00:11:12;5.00;99.90
31661;DHT22;18267;52.234;7.444;2023-04-06T00:13:38;5.00;99.90
31661;DHT22;18267;52.234;7.444;2023-04-06T00:16:03;5.00;99.90
31661;DHT22;18267;52.234;7.444;2023-04-06T00:18:31;5.00;99.90
31661;DHT22;18267;52.234;7.444;2023-04-06T00:20:56;4.90;99.90
31661;DHT22;18267;52.234;7.444;2023-04-06T00:23:22;4.90;99.90
31661;DHT22;18267;52.234;7.444;2023-04-06T00:25:48;4.90;99.90
31661;DHT22;18267;52.234;7.444;2023-04-06T00:28:13;4.90;99.90
31661;DHT22;18267;52.234;7.444;2023-04-06T00:30:40;4.90;99.90
31661;DHT22;18267;52.234;7.444;2023-04-06T00:33:05;4.90;99.90
31661;DHT22;18267;52.234;7.444;2023-04-06T00:35:31;4.90;99.90
31661;DHT22;18267;52.234;7.444;2023-04-06T00:37:57;4.70;99.90
31661;DHT22;18267;52.234;7.444;2023-04-06T00:40:22;4.70;99.90
31661;DHT22;18267;52.234;7.444;2023-04-06T00:42:48;4.80;99.90
31661;DHT22;18267;52.234;7.444;2023-04-06T00:45:14;4.80;99.90
31661;DHT22;18267;52.234;7.444;2023-04-06T00:47:39;4.70;99.90
31661;DHT22;18267;52.234;7.444;2023-04-06T00:50:05;4.70;99.90
31661;DHT22;18267;52.234;7.444;2023-04-06T00:52:31;4.70;99.90
31661;DHT22;18267;52.234;7.444;2023-04-06T00:54:57;4.70;99.90
31661;DHT22;18267;52.234;7.444;2023-04-06T00:57:22;4.70;99.90
31661;DHT22;18267;52.234;7.444;2023-04-06T00:59:48;4.70;99.90
31661;DHT22;18267;52.234;7.444;2023-04-06T01:02:14;4.70;99.90
31661;DHT22;18267;52.234;7.444;2023-04-06T01:04:40;4.80;99.90
31661;DHT22;18267;52.234;7.444;2023-04-06T01:07:05;4.60;99.90
31661;DHT22;18267;52.234;7.444;2023-04-06T01:09:31;4.60;99.90
31661;DHT22;18267;52.234;7.444;2023-04-06T01:11:57;4.60;99.90
31661;DHT22;18267;52.234;7.444;2023-04-06T01:14:24;4.40;99.90
31661;DHT22;18267;52.234;7.444;2023-04-06T01:16:50;4.40;99.90
31661;DHT22;18267;52.234;7.444;2023-04-06T01:19:15;4.30;99.90
31661;DHT22;18267;52.234;7.444;2023-04-06T01:21:41;4.30;99.90
31661;DHT22;18267;52.234;7.444;2023-04-06T01:24:08;4.30;99.90
31661;DHT22;18267;52.234;7.444;2023-04-06T01:26:35;4.30;99.90
31661;DHT22;18267;52.234;7.444;2023-04-06T01:29:01;4.30;99.90
31661;DHT22;18267;52.234;7.444;2023-04-06T01:31:27;4.30;99.90
31661;DHT22;18267;52.234;7.444;2023-04-06T01:33:54;4.40;99.90
31661;DHT22;18267;52.234;7.444;2023-04-06T01:36:20;4.30;99.90
31661;DHT22;18267;52.234;7.444;2023-04-06T01:38:46;4.30;99.90
31661;DHT22;18267;52.234;7.444;2023-04-06T01:41:11;4.30;99.90
31661;DHT22;18267;52.234;7.444;2023-04-06T01:43:37;4.20;99.90
31661;DHT22;18267;52.234;7.444;2023-04-06T01:46:03;4.10;99.90
31661;DHT22;18267;52.234;7.444;2023-04-06T01:48:29;4.00;99.90
31661;DHT22;18267;52.234;7.444;2023-04-06T01:50:55;4.10;99.90
31661;DHT22;18267;52.234;7.444;2023-04-06T01:53:21;4.10;99.90
31661;DHT22;18267;52.234;7.444;2023-04-06T01:55:47;4.10;99.90
31661;DHT22;18267;52.234;7.444;2023-04-06T01:58:13;4.00;99.90
31661;DHT22;18267;52.234;7.444;2023-04-06T02:00:39;4.00;99.90
31661;DHT22;18267;52.234;7.444;2023-04-06T02:03:05;4.00;99.90
31661;DHT22;18267;52.234;7.444;2023-04-06T02:05:32;4.10;99.90
31661;DHT22;18267;52.234;7.444;2023-04-06T02:08:05;4.10;99.90
31661;DHT22;18267;52.234;7.444;2023-04-06T02:10:32;4.10;99.90
31661;DHT22;18267;52.234;7.444;2023-04-06T02:12:57;4.10;99.90
31661;DHT22;18267;52.234;7.444;2023-04-06T02:15:23;3.90;99.90
31661;DHT22;18267;52.234;7.444;2023-04-06T02:17:49;4.00;99.90
31661;DHT22;18267;52.234;7.444;2023-04-06T02:20:15;4.00;99.90
31661;DHT22;18267;52.234;7.444;2023-04-06T02:22:40;3.80;99.90
31661;DHT22;18267;52.234;7.444;2023-04-06T02:25:06;3.80;99.90
31661;DHT22;18267;52.234;7.444;2023-04-06T02:27:32;3.80;99.90
31661;DHT22;18267;52.234;7.444;2023-04-06T02:29:58;3.80;99.90
31661;DHT22;18267;52.234;7.444;2023-04-06T02:32:24;3.90;99.90
31661;DHT22;18267;52.234;7.444;2023-04-06T02:34:49;4.00;99.90
31661;DHT22;18267;52.234;7.444;2023-04-06T02:37:15;3.90;99.90
31661;DHT22;18267;52.234;7.444;2023-04-06T02:39:41;3.60;99.90
31661;DHT22;18267;52.234;7.444;2023-04-06T02:42:07;3.70;99.90
31661;DHT22;18267;52.234;7.444;2023-04-06T02:44:34;3.60;99.90
31661;DHT22;18267;52.234;7.444;2023-04-06T02:46:59;3.60;99.90
31661;DHT22;18267;52.234;7.444;2023-04-06T02:49:25;3.70;99.90
31661;DHT22;18267;52.234;7.444;2023-04-06T02:51:50;3.70;99.90
31661;DHT22;18267;52.234;7.444;2023-04-06T02:54:16;3.70;99.90
31661;DHT22;18267;52.234;7.444;2023-04-06T02:56:41;3.70;99.90
31661;DHT22;18267;52.234;7.444;2023-04-06T02:59:07;3.70;99.90
31661;DHT22;18267;52.234;7.444;2023-04-06T03:01:32;3.70;99.90
31661;DHT22;18267;52.234;7.444;2023-04-06T03:03:58;3.70;99.90
31661;DHT22;18267;52.234;7.444;2023-04-06T03:06:23;3.70;99.90
31661;DHT22;18267;52.234;7.444;2023-04-06T03:08:49;3.60;99.90
31661;DHT22;18267;52.234;7.444;2023-04-06T03:11:15;3.60;99.90
31661;DHT22;18267;52.234;7.444;2023-04-06T03:13:41;3.60;99.90
31661;DHT22;18267;52.234;7.444;2023-04-06T03:16:06;3.60;99.90
31661;DHT22;18267;52.234;7.444;2023-04-06T03:18:32;3.60;99.90
31661;DHT22;18267;52.234;7.444;2023-04-06T03:20:58;3.70;99.90
31661;DHT22;18267;52.234;7.444;2023-04-06T03:23:25;3.70;99.90
31661;DHT22;18267;52.234;7.444;2023-04-06T03:25:51;3.80;99.90
31661;DHT22;18267;52.234;7.444;2023-04-06T03:28:16;3.70;99.90
31661;DHT22;18267;52.234;7.444;2023-04-06T03:30:42;3.70;99.90
31661;DHT22;18267;52.234;7.444;2023-04-06T03:33:07;3.70;99.90
31661;DHT22;18267;52.234;7.444;2023-04-06T03:35:33;3.70;99.90
31661;DHT22;18267;52.234;7.444;2023-04-06T03:37:58;3.60;99.90
31661;DHT22;18267;52.234;7.444;2023-04-06T03:40:24;3.60;99.90
31661;DHT22;18267;52.234;7.444;2023-04-06T03:42:50;3.60;99.90
31661;DHT22;18267;52.234;7.444;2023-04-06T03:45:16;3.60;99.90
31661;DHT22;18267;52.234;7.444;2023-04-06T03:47:41;3.70;99.90
31661;DHT22;18267;52.234;7.444;2023-04-06T03:50:07;3.60;99.90
31661;DHT22;18267;52.234;7.444;2023-04-06T03:52:32;3.50;99.90
31661;DHT22;18267;52.234;7.444;2023-04-06T03:54:58;3.30;99.90
31661;DHT22;18267;52.234;7.444;2023-04-06T03:57:24;3.30;99.90
31661;DHT22;18267;52.234;7.444;2023-04-06T03:59:49;3.30;99.90
31661;DHT22;18267;52.234;7.444;2023-04-06T04:02:15;3.30;99.90
31661;DHT22;18267;52.234;7.444;2023-04-06T04:04:40;3.40;99.90
31661;DHT22;18267;52.234;7.444;2023-04-06T04:07:06;3.40;99.90
31661;DHT22;18267;52.234;7.444;2023-04-06T04:09:31;3.50;99.90
31661;DHT22;18267;52.234;7.444;2023-04-06T04:11:57;3.50;99.90
31661;DHT22;18267;52.234;7.444;2023-04-06T04:14:22;3.50;99.90
31661;DHT22;18267;52.234;7.444;2023-04-06T04:16:48;3.50;99.90
31661;DHT22;18267;52.234;7.444;2023-04-06T04:19:13;3.50;99.90
31661;DHT22;18267;52.234;7.444;2023-04-06T04:21:43;3.40;99.90
31661;DHT22;18267;52.234;7.444;2023-04-06T04:24:13;3.30;99.90
31661;DHT22;18267;52.234;7.444;2023-04-06T04:26:39;3.30;99.90
31661;DHT22;18267;52.234;7.444;2023-04-06T04:29:05;3.40;99.90
31661;DHT22;18267;52.234;7.444;2023-04-06T04:31:31;3.30;99.90
31661;DHT22;18267;52.234;7.444;2023-04-06T04:33:57;3.30;99.90
31661;DHT22;18267;52.234;7.444;2023-04-06T04:36:22;3.20;99.90
31661;DHT22;18267;52.234;7.444;2023-04-06T04:38:49;3.20;99.90
31661;DHT22;18267;52.234;7.444;2023-04-06T04:41:15;3.10;99.90
31661;DHT22;18267;52.234;7.444;2023-04-06T04:43:41;3.10;99.90
31661;DHT22;18267;52.234;7.444;2023-04-06T04:46:06;3.20;99.90
31661;DHT22;18267;52.234;7.444;2023-04-06T04:48:32;3.20;99.90
31661;DHT22;18267;52.234;7.444;2023-04-06T04:50:57;3.20;99.90
31661;DHT22;18267;52.234;7.444;2023-04-06T04:53:23;3.30;99.90
31661;DHT22;18267;52.234;7.444;2023-04-06T04:55:48;3.40;99.90
31661;DHT22;18267;52.234;7.444;2023-04-06T04:58:14;3.30;99.90
31661;DHT22;18267;52.234;7.444;2023-04-06T05:00:42;3.40;99.90
31661;DHT22;18267;52.234;7.444;2023-04-06T05:03:08;3.40;99.90
31661;DHT22;18267;52.234;7.444;2023-04-06T05:05:34;3.30;99.90
31661;DHT22;18267;52.234;7.444;2023-04-06T05:07:59;3.20;99.90
31661;DHT22;18267;52.234;7.444;2023-04-06T05:10:25;3.30;99.90
31661;DHT22;18267;52.234;7.444;2023-04-06T05:12:51;3.40;99.90
31661;DHT22;18267;52.234;7.444;2023-04-06T05:15:16;3.40;99.90
31661;DHT22;18267;52.234;7.444;2023-04-06T05:17:42;3.40;99.90
31661;DHT22;18267;52.234;7.444;2023-04-06T05:20:08;3.50;99.90
31661;DHT22;18267;52.234;7.444;2023-04-06T05:22:33;3.60;99.90
31661;DHT22;18267;52.234;7.444;2023-04-06T05:25:00;3.60;99.90
31661;DHT22;18267;52.234;7.444;2023-04-06T05:27:26;3.40;99.90
31661;DHT22;18267;52.234;7.444;2023-04-06T05:29:51;3.50;99.90
31661;DHT22;18267;52.234;7.444;2023-04-06T05:32:17;3.50;99.90
31661;DHT22;18267;52.234;7.444;2023-04-06T05:34:48;3.70;99.90
31661;DHT22;18267;52.234;7.444;2023-04-06T05:37:13;3.70;99.90
31661;DHT22;18267;52.234;7.444;2023-04-06T05:39:39;3.60;99.90
31661;DHT22;18267;52.234;7.444;2023-04-06T05:42:05;3.70;99.90
31661;DHT22;18267;52.234;7.444;2023-04-06T05:44:32;3.80;99.90
31661;DHT22;18267;52.234;7.444;2023-04-06T05:46:57;3.80;99.90
31661;DHT22;18267;52.234;7.444;2023-04-06T05:49:23;3.80;99.90
31661;DHT22;18267;52.234;7.444;2023-04-06T05:51:48;3.90;99.90
31661;DHT22;18267;52.234;7.444;2023-04-06T05:54:14;3.90;99.90
31661;DHT22;18267;52.234;7.444;2023-04-06T05:56:39;3.90;99.90
31661;DHT22;18267;52.234;7.444;2023-04-06T05:59:05;4.00;99.90
31661;DHT22;18267;52.234;7.444;2023-04-06T06:01:32;4.00;99.90
31661;DHT22;18267;52.234;7.444;2023-04-06T06:03:57;4.00;99.90
31661;DHT22;18267;52.234;7.444;2023-04-06T06:06:23;4.10;99.90
31661;DHT22;18267;52.234;7.444;2023-04-06T06:08:48;4.10;99.90
31661;DHT22;18267;52.234;7.444;2023-04-06T06:11:14;4.10;99.90
31661;DHT22;18267;52.234;7.444;2023-04-06T06:13:39;4.10;99.90
31661;DHT22;18267;52.234;7.444;2023-04-06T06:16:05;4.10;99.90
31661;DHT22;18267;52.234;7.444;2023-04-06T06:18:31;4.10;99.90
31661;DHT22;18267;52.234;7.444;2023-04-06T06:20:57;4.20;99.90
31661;DHT22;18267;52.234;7.444;2023-04-06T06:23:23;4.40;99.90
31661;DHT22;18267;52.234;7.444;2023-04-06T06:25:48;4.50;99.90
31661;DHT22;18267;52.234;7.444;2023-04-06T06:28:14;4.60;99.90
31661;DHT22;18267;52.234;7.444;2023-04-06T06:30:40;4.60;99.90
31661;DHT22;18267;52.234;7.444;2023-04-06T06:33:05;4.60;99.90
31661;DHT22;18267;52.234;7.444;2023-04-06T06:35:31;4.60;99.90
31661;DHT22;18267;52.234;7.444;2023-04-06T06:37:56;4.70;99.90
31661;DHT22;18267;52.234;7.444;2023-04-06T06:40:22;4.80;99.90
31661;DHT22;18267;52.234;7.444;2023-04-06T06:42:49;4.70;99.90
31661;DHT22;18267;52.234;7.444;2023-04-06T06:45:15;4.80;99.90
31661;DHT22;18267;52.234;7.444;2023-04-06T06:47:41;4.90;99.90
31661;DHT22;18267;52.234;7.444;2023-04-06T06:50:06;4.90;99.90
31661;DHT22;18267;52.234;7.444;2023-04-06T06:52:32;4.90;99.90
31661;DHT22;18267;52.234;7.444;2023-04-06T06:54:58;5.00;99.90
31661;DHT22;18267;52.234;7.444;2023-04-06T06:57:23;5.10;99.90
31661;DHT22;18267;52.234;7.444;2023-04-06T06:59:49;5.30;99.90
31661;DHT22;18267;52.234;7.444;2023-04-06T07:02:14;5.30;99.90
31661;DHT22;18267;52.234;7.444;2023-04-06T07:04:40;5.30;99.90
31661;DHT22;18267;52.234;7.444;2023-04-06T07:07:05;5.40;99.90
31661;DHT22;18267;52.234;7.444;2023-04-06T07:09:31;5.40;99.90
31661;DHT22;18267;52.234;7.444;2023-04-06T07:11:57;5.30;99.90
31661;DHT22;18267;52.234;7.444;2023-04-06T07:14:23;5.30;99.90
31661;DHT22;18267;52.234;7.444;2023-04-06T07:16:48;5.40;99.90
31661;DHT22;18267;52.234;7.444;2023-04-06T07:19:15;5.40;99.90
31661;DHT22;18267;52.234;7.444;2023-04-06T07:21:41;5.50;99.90
31661;DHT22;18267;52.234;7.444;2023-04-06T07:24:06;5.60;99.90
31661;DHT22;18267;52.234;7.444;2023-04-06T07:26:32;5.70;99.90
31661;DHT22;18267;52.234;7.444;2023-04-06T07:28:57;5.70;99.90
31661;DHT22;18267;52.234;7.444;2023-04-06T07:31:23;5.70;99.90
31661;DHT22;18267;52.234;7.444;2023-04-06T07:33:49;5.80;99.90
31661;DHT22;18267;52.234;7.444;2023-04-06T07:36:15;5.80;99.90
31661;DHT22;18267;52.234;7.444;2023-04-06T07:38:40;5.90;99.90
31661;DHT22;18267;52.234;7.444;2023-04-06T07:41:06;6.00;99.90
31661;DHT22;18267;52.234;7.444;2023-04-06T07:43:31;6.10;99.90
31661;DHT22;18267;52.234;7.444;2023-04-06T07:45:57;6.20;99.90
31661;DHT22;18267;52.234;7.444;2023-04-06T07:48:24;6.30;99.90
31661;DHT22;18267;52.234;7.444;2023-04-06T07:50:50;6.40;99.90
31661;DHT22;18267;52.234;7.444;2023-04-06T07:53:15;6.50;99.90
31661;DHT22;18267;52.234;7.444;2023-04-06T07:55:41;6.60;99.90
31661;DHT22;18267;52.234;7.444;2023-04-06T07:58:07;6.60;99.90
31661;DHT22;18267;52.234;7.444;2023-04-06T08:00:33;6.70;99.90
31661;DHT22;18267;52.234;7.444;2023-04-06T08:02:58;6.70;99.90
31661;DHT22;18267;52.234;7.444;2023-04-06T08:05:24;6.80;99.90
31661;DHT22;18267;52.234;7.444;2023-04-06T08:07:50;6.70;99.90
31661;DHT22;18267;52.234;7.444;2023-04-06T08:10:16;6.80;99.90
31661;DHT22;18267;52.234;7.444;2023-04-06T08:12:45;6.80;99.90
31661;DHT22;18267;52.234;7.444;2023-04-06T08:15:20;6.90;99.90
31661;DHT22;18267;52.234;7.444;2023-04-06T08:17:46;7.00;99.90
31661;DHT22;18267;52.234;7.444;2023-04-06T08:20:15;7.10;99.90
31661;DHT22;18267;52.234;7.444;2023-04-06T08:23:04;7.10;99.90
31661;DHT22;18267;52.234;7.444;2023-04-06T08:25:30;7.30;99.90
31661;DHT22;18267;52.234;7.444;2023-04-06T08:27:56;7.40;99.90
31661;DHT22;18267;52.234;7.444;2023-04-06T08:30:22;7.50;99.90
31661;DHT22;18267;52.234;7.444;2023-04-06T08:32:48;7.50;99.90
31661;DHT22;18267;52.234;7.444;2023-04-06T08:35:14;7.60;99.90
31661;DHT22;18267;52.234;7.444;2023-04-06T08:37:41;7.70;99.90
31661;DHT22;18267;52.234;7.444;2023-04-06T08:40:07;7.80;99.90
31661;DHT22;18267;52.234;7.444;2023-04-06T08:42:42;7.80;99.90
31661;DHT22;18267;52.234;7.444;2023-04-06T08:45:09;7.90;99.90
31661;DHT22;18267;52.234;7.444;2023-04-06T08:47:39;7.90;99.90
31661;DHT22;18267;52.234;7.444;2023-04-06T08:50:05;8.00;99.90
31661;DHT22;18267;52.234;7.444;2023-04-06T08:52:32;8.00;99.90
31661;DHT22;18267;52.234;7.444;2023-04-06T08:54:59;8.10;99.90
31661;DHT22;18267;52.234;7.444;2023-04-06T08:57:25;8.20;99.90
31661;DHT22;18267;52.234;7.444;2023-04-06T08:59:51;8.20;99.90
31661;DHT22;18267;52.234;7.444;2023-04-06T09:02:18;8.30;99.90
31661;DHT22;18267;52.234;7.444;2023-04-06T09:04:53;8.40;99.90
31661;DHT22;18267;52.234;7.444;2023-04-06T09:07:19;8.40;99.90
31661;DHT22;18267;52.234;7.444;2023-04-06T09:09:45;8.50;99.90
31661;DHT22;18267;52.234;7.444;2023-04-06T09:12:27;8.50;99.90
31661;DHT22;18267;52.234;7.444;2023-04-06T09:14:52;8.60;99.90
31661;DHT22;18267;52.234;7.444;2023-04-06T09:17:26;8.70;99.90
31661;DHT22;18267;52.234;7.444;2023-04-06T09:19:52;8.80;99.90
31661;DHT22;18267;52.234;7.444;2023-04-06T09:22:18;8.80;99.90
31661;DHT22;18267;52.234;7.444;2023-04-06T09:24:49;8.80;99.90
31661;DHT22;18267;52.234;7.444;2023-04-06T09:27:16;8.90;99.90
31661;DHT22;18267;52.234;7.444;2023-04-06T09:29:42;9.00;99.90
31661;DHT22;18267;52.234;7.444;2023-04-06T09:32:09;9.10;99.90
31661;DHT22;18267;52.234;7.444;2023-04-06T09:34:42;9.10;99.90
31661;DHT22;18267;52.234;7.444;2023-04-06T09:37:14;9.20;99.80
31661;DHT22;18267;52.234;7.444;2023-04-06T09:39:40;9.30;99.90
31661;DHT22;18267;52.234;7.444;2023-04-06T09:42:06;9.30;99.90
31661;DHT22;18267;52.234;7.444;2023-04-06T09:44:32;9.30;99.90
31661;DHT22;18267;52.234;7.444;2023-04-06T09:46:57;9.40;99.90
31661;DHT22;18267;52.234;7.444;2023-04-06T09:49:24;9.50;99.90
31661;DHT22;18267;52.234;7.444;2023-04-06T09:51:59;9.40;99.70
31661;DHT22;18267;52.234;7.444;2023-04-06T09:54:28;9.60;99.40
31661;DHT22;18267;52.234;7.444;2023-04-06T09:57:11;9.60;99.90
31661;DHT22;18267;52.234;7.444;2023-04-06T10:05:42;9.90;98.00
31661;DHT22;18267;52.234;7.444;2023-04-06T10:08:10;9.90;97.40
31661;DHT22;18267;52.234;7.444;2023-04-06T10:10:36;10.00;96.80
31661;DHT22;18267;52.234;7.444;2023-04-06T10:13:02;10.00;97.40
31661;DHT22;18267;52.234;7.444;2023-04-06T10:15:28;10.10;98.70
31661;DHT22;18267;52.234;7.444;2023-04-06T10:17:56;10.20;98.50
31661;DHT22;18267;52.234;7.444;2023-04-06T10:20:55;10.40;97.40
31661;DHT22;18267;52.234;7.444;2023-04-06T10:23:41;10.40;96.40
31661;DHT22;18267;52.234;7.444;2023-04-06T10:26:14;10.50;97.50
31661;DHT22;18267;52.234;7.444;2023-04-06T10:28:42;10.60;97.10
31661;DHT22;18267;52.234;7.444;2023-04-06T10:31:08;10.70;96.00
31661;DHT22;18267;52.234;7.444;2023-04-06T10:33:34;10.80;94.40
31661;DHT22;18267;52.234;7.444;2023-04-06T10:36:13;10.90;94.20
31661;DHT22;18267;52.234;7.444;2023-04-06T10:38:40;11.00;93.60
31661;DHT22;18267;52.234;7.444;2023-04-06T10:41:08;11.00;92.80
31661;DHT22;18267;52.234;7.444;2023-04-06T10:43:36;11.10;92.50
31661;DHT22;18267;52.234;7.444;2023-04-06T10:46:04;11.20;93.10
31661;DHT22;18267;52.234;7.444;2023-04-06T10:48:57;11.40;93.60
31661;DHT22;18267;52.234;7.444;2023-04-06T10:51:27;11.60;92.80
31661;DHT22;18267;52.234;7.444;2023-04-06T10:53:54;11.70;92.50
31661;DHT22;18267;52.234;7.444;2023-04-06T10:56:24;11.70;92.20
31661;DHT22;18267;52.234;7.444;2023-04-06T10:58:53;11.90;92.80
31661;DHT22;18267;52.234;7.444;2023-04-06T11:01:22;12.00;92.80
31661;DHT22;18267;52.234;7.444;2023-04-06T11:03:53;12.10;93.10
31661;DHT22;18267;52.234;7.444;2023-04-06T11:06:23;12.10;91.30
31661;DHT22;18267;52.234;7.444;2023-04-06T11:08:49;12.10;90.80
31661;DHT22;18267;52.234;7.444;2023-04-06T11:11:19;12.10;91.30
31661;DHT22;18267;52.234;7.444;2023-04-06T11:13:49;12.30;90.40
31661;DHT22;18267;52.234;7.444;2023-04-06T11:16:16;12.40;90.50
31661;DHT22;18267;52.234;7.444;2023-04-06T11:18:59;12.40;90.70
31661;DHT22;18267;52.234;7.444;2023-04-06T11:21:40;12.40;90.50
31661;DHT22;18267;52.234;7.444;2023-04-06T11:26:44;12.60;88.60
31661;DHT22;18267;52.234;7.444;2023-04-06T11:29:34;12.60;86.00
31661;DHT22;18267;52.234;7.444;2023-04-06T11:32:07;12.70;86.00
31661;DHT22;18267;52.234;7.444;2023-04-06T11:34:36;12.70;87.60
31661;DHT22;18267;52.234;7.444;2023-04-06T11:37:04;12.80;89.70
31661;DHT22;18267;52.234;7.444;2023-04-06T11:39:47;12.80;89.00
31661;DHT22;18267;52.234;7.444;2023-04-06T11:42:21;12.90;85.70
31661;DHT22;18267;52.234;7.444;2023-04-06T11:44:51;12.80;86.70
31661;DHT22;18267;52.234;7.444;2023-04-06T11:47:18;12.80;86.40
31661;DHT22;18267;52.234;7.444;2023-04-06T11:49:44;12.80;85.90
31661;DHT22;18267;52.234;7.444;2023-04-06T11:54:43;12.80;86.40
31661;DHT22;18267;52.234;7.444;2023-04-06T11:57:09;12.70;85.80
31661;DHT22;18267;52.234;7.444;2023-04-06T11:59:35;12.70;86.20
31661;DHT22;18267;52.234;7.444;2023-04-06T12:02:02;12.70;86.50
31661;DHT22;18267;52.234;7.444;2023-04-06T12:04:28;12.80;88.10
31661;DHT22;18267;52.234;7.444;2023-04-06T12:06:55;13.00;84.20
31661;DHT22;18267;52.234;7.444;2023-04-06T12:09:20;13.00;84.50
31661;DHT22;18267;52.234;7.444;2023-04-06T12:11:46;13.10;84.50
31661;DHT22;18267;52.234;7.444;2023-04-06T12:14:12;13.10;84.70
31661;DHT22;18267;52.234;7.444;2023-04-06T12:16:39;13.20;88.10
31661;DHT22;18267;52.234;7.444;2023-04-06T12:19:05;13.20;86.50
31661;DHT22;18267;52.234;7.444;2023-04-06T12:21:31;13.20;85.90
31661;DHT22;18267;52.234;7.444;2023-04-06T12:23:58;13.20;86.10
31661;DHT22;18267;52.234;7.444;2023-04-06T12:26:24;13.20;85.20
31661;DHT22;18267;52.234;7.444;2023-04-06T12:28:50;13.20;87.50
31661;DHT22;18267;52.234;7.444;2023-04-06T12:31:16;13.40;88.30
31661;DHT22;18267;52.234;7.444;2023-04-06T12:33:42;13.40;86.20
31661;DHT22;18267;52.234;7.444;2023-04-06T12:36:14;13.40;84.40
31661;DHT22;18267;52.234;7.444;2023-04-06T12:38:41;13.50;86.90
31661;DHT22;18267;52.234;7.444;2023-04-06T12:41:07;13.50;86.70
31661;DHT22;18267;52.234;7.444;2023-04-06T12:43:33;13.40;85.50
31661;DHT22;18267;52.234;7.444;2023-04-06T12:45:59;13.30;85.10
31661;DHT22;18267;52.234;7.444;2023-04-06T12:48:28;13.30;86.00
31661;DHT22;18267;52.234;7.444;2023-04-06T12:50:58;13.20;86.90
31661;DHT22;18267;52.234;7.444;2023-04-06T12:53:23;13.30;86.60
31661;DHT22;18267;52.234;7.444;2023-04-06T12:55:49;13.50;86.10
31661;DHT22;18267;52.234;7.444;2023-04-06T12:58:15;13.50;86.10
31661;DHT22;18267;52.234;7.444;2023-04-06T13:00:43;13.50;86.00
31661;DHT22;18267;52.234;7.444;2023-04-06T13:03:08;13.60;84.80
31661;DHT22;18267;52.234;7.444;2023-04-06T13:05:34;13.70;86.40
31661;DHT22;18267;52.234;7.444;2023-04-06T13:08:09;13.70;85.90
31661;DHT22;18267;52.234;7.444;2023-04-06T13:11:16;13.80;86.30
31661;DHT22;18267;52.234;7.444;2023-04-06T13:13:47;13.80;86.00
31661;DHT22;18267;52.234;7.444;2023-04-06T13:19:30;14.00;86.60
31661;DHT22;18267;52.234;7.444;2023-04-06T13:21:56;13.90;85.40
31661;DHT22;18267;52.234;7.444;2023-04-06T13:24:22;13.80;84.20
31661;DHT22;18267;52.234;7.444;2023-04-06T13:26:54;13.80;85.50
31661;DHT22;18267;52.234;7.444;2023-04-06T13:29:21;13.90;86.50
31661;DHT22;18267;52.234;7.444;2023-04-06T13:32:11;13.80;84.90
31661;DHT22;18267;52.234;7.444;2023-04-06T13:34:37;13.70;85.00
31661;DHT22;18267;52.234;7.444;2023-04-06T13:37:03;13.80;85.30
31661;DHT22;18267;52.234;7.444;2023-04-06T13:39:28;13.80;85.90
31661;DHT22;18267;52.234;7.444;2023-04-06T13:41:55;13.80;85.40
31661;DHT22;18267;52.234;7.444;2023-04-06T13:44:24;13.70;83.80
31661;DHT22;18267;52.234;7.444;2023-04-06T13:46:54;13.80;84.30
31661;DHT22;18267;52.234;7.444;2023-04-06T13:49:19;13.80;83.50
31661;DHT22;18267;52.234;7.444;2023-04-06T13:51:45;13.80;83.60
31661;DHT22;18267;52.234;7.444;2023-04-06T13:54:11;13.80;83.30
31661;DHT22;18267;52.234;7.444;2023-04-06T13:56:36;13.80;81.80
31661;DHT22;18267;52.234;7.444;2023-04-06T13:59:03;13.70;82.10
31661;DHT22;18267;52.234;7.444;2023-04-06T14:01:28;13.70;82.10
31661;DHT22;18267;52.234;7.444;2023-04-06T14:03:54;13.70;81.60
31661;DHT22;18267;52.234;7.444;2023-04-06T14:06:20;13.70;81.70
31661;DHT22;18267;52.234;7.444;2023-04-06T14:08:46;13.70;83.30
31661;DHT22;18267;52.234;7.444;2023-04-06T14:11:12;13.70;84.10
31661;DHT22;18267;52.234;7.444;2023-04-06T14:13:39;13.70;85.10
31661;DHT22;18267;52.234;7.444;2023-04-06T14:16:06;13.80;84.50
31661;DHT22;18267;52.234;7.444;2023-04-06T14:18:33;13.80;82.40
31661;DHT22;18267;52.234;7.444;2023-04-06T14:20:59;13.80;81.00
31661;DHT22;18267;52.234;7.444;2023-04-06T14:23:29;13.80;80.70
31661;DHT22;18267;52.234;7.444;2023-04-06T14:26:04;13.80;79.40
31661;DHT22;18267;52.234;7.444;2023-04-06T14:28:32;13.80;80.20
31661;DHT22;18267;52.234;7.444;2023-04-06T14:30:59;13.70;80.60
31661;DHT22;18267;52.234;7.444;2023-04-06T14:33:26;13.80;81.20
31661;DHT22;18267;52.234;7.444;2023-04-06T14:35:51;13.80;80.20
31661;DHT22;18267;52.234;7.444;2023-04-06T14:38:17;13.80;79.90
31661;DHT22;18267;52.234;7.444;2023-04-06T14:40:42;13.80;81.50
31661;DHT22;18267;52.234;7.444;2023-04-06T14:43:08;13.80;81.90
31661;DHT22;18267;52.234;7.444;2023-04-06T14:45:34;13.90;84.40
31661;DHT22;18267;52.234;7.444;2023-04-06T14:48:02;13.90;84.20
31661;DHT22;18267;52.234;7.444;2023-04-06T14:50:27;14.00;82.80
31661;DHT22;18267;52.234;7.444;2023-04-06T14:52:53;14.00;83.10
31661;DHT22;18267;52.234;7.444;2023-04-06T14:55:19;14.00;84.80
31661;DHT22;18267;52.234;7.444;2023-04-06T14:57:44;13.90;86.80
31661;DHT22;18267;52.234;7.444;2023-04-06T15:00:11;13.80;89.00
31661;DHT22;18267;52.234;7.444;2023-04-06T15:02:37;13.80;90.40
31661;DHT22;18267;52.234;7.444;2023-04-06T15:05:03;13.70;90.20
31661;DHT22;18267;52.234;7.444;2023-04-06T15:07:30;13.80;90.10
31661;DHT22;18267;52.234;7.444;2023-04-06T15:09:56;13.80;91.10
31661;DHT22;18267;52.234;7.444;2023-04-06T15:12:21;13.80;90.70
31661;DHT22;18267;52.234;7.444;2023-04-06T15:14:47;13.70;91.00
31661;DHT22;18267;52.234;7.444;2023-04-06T15:17:12;13.70;91.10
31661;DHT22;18267;52.234;7.444;2023-04-06T15:19:38;13.70;91.80
31661;DHT22;18267;52.234;7.444;2023-04-06T15:22:03;13.50;92.00
31661;DHT22;18267;52.234;7.444;2023-04-06T15:24:29;13.40;92.30
31661;DHT22;18267;52.234;7.444;2023-04-06T15:26:54;13.40;92.70
31661;DHT22;18267;52.234;7.444;2023-04-06T15:29:21;13.40;92.00
31661;DHT22;18267;52.234;7.444;2023-04-06T15:31:46;13.30;91.90
31661;DHT22;18267;52.234;7.444;2023-04-06T15:34:12;13.20;92.20
31661;DHT22;18267;52.234;7.444;2023-04-06T15:36:37;13.10;92.40
31661;DHT22;18267;52.234;7.444;2023-04-06T15:39:03;13.10;92.60
31661;DHT22;18267;52.234;7.444;2023-04-06T15:41:31;13.00;92.60
31661;DHT22;18267;52.234;7.444;2023-04-06T15:43:57;12.90;93.10
31661;DHT22;18267;52.234;7.444;2023-04-06T15:46:22;12.90;93.10
31661;DHT22;18267;52.234;7.444;2023-04-06T15:48:48;13.00;92.80
31661;DHT22;18267;52.234;7.444;2023-04-06T15:51:14;12.90;92.80
31661;DHT22;18267;52.234;7.444;2023-04-06T15:53:41;12.90;93.20